Cul'Man, Russia
Current Conditions -  °F | °C
As of 10:00 AM on Monday 24 Nov 2014 (Local Time) from UEEE Reporting Station
Clear Clear  
Wind Chill: -18°   Ceiling: Unl
Heat Index: -18°   Visibility: 6mi
Dew Point: -24°   Wind: 2mph
Humidity: 76%   Direction: 160°SSE
Pressure: 30"   Gusts: NA
Location:  56.83°N, 124.87°E
Report Text: UEEE 240100Z 16001MPS CAVOK M28/M31 Q1016 NOSIG RMK QFE75323490150
Loading
Personal Weather Stations






























Interactive Weather Map New forecast layout! Learn more

10-Day Weather Forecast

Advertisements
Track Severe Weather on mobile